sensor_id;sensor_type;location;lat;lon;timestamp;temperature;humidity
21849;DHT22;11089;49.852;19.700;2023-05-16T00:01:06;11.80;99.90
21849;DHT22;11089;49.852;19.700;2023-05-16T00:04:08;11.90;99.90
21849;DHT22;11089;49.852;19.700;2023-05-16T00:07:09;11.90;99.90
21849;DHT22;11089;49.852;19.700;2023-05-16T00:10:11;11.80;99.90
21849;DHT22;11089;49.852;19.700;2023-05-16T00:13:12;11.80;99.90
21849;DHT22;11089;49.852;19.700;2023-05-16T00:16:13;11.80;99.90
21849;DHT22;11089;49.852;19.700;2023-05-16T00:19:14;11.80;99.90
21849;DHT22;11089;49.852;19.700;2023-05-16T00:22:15;11.80;99.90
21849;DHT22;11089;49.852;19.700;2023-05-16T00:25:17;11.80;1.00
21849;DHT22;11089;49.852;19.700;2023-05-16T00:28:17;11.80;99.90
21849;DHT22;11089;49.852;19.700;2023-05-16T00:31:18;11.90;99.90
21849;DHT22;11089;49.852;19.700;2023-05-16T00:34:19;11.90;99.90
21849;DHT22;11089;49.852;19.700;2023-05-16T00:37:22;11.90;99.90
21849;DHT22;11089;49.852;19.700;2023-05-16T00:40:23;11.80;99.90
21849;DHT22;11089;49.852;19.700;2023-05-16T00:43:24;11.80;99.90
21849;DHT22;11089;49.852;19.700;2023-05-16T00:46:25;11.80;99.90
21849;DHT22;11089;49.852;19.700;2023-05-16T00:49:26;11.90;99.90
21849;DHT22;11089;49.852;19.700;2023-05-16T00:52:27;11.80;99.90
21849;DHT22;11089;49.852;19.700;2023-05-16T00:55:28;11.80;1.00
21849;DHT22;11089;49.852;19.700;2023-05-16T00:58:30;11.80;1.00
21849;DHT22;11089;49.852;19.700;2023-05-16T01:01:31;11.70;1.00
21849;DHT22;11089;49.852;19.700;2023-05-16T01:04:33;11.80;99.90
21849;DHT22;11089;49.852;19.700;2023-05-16T01:07:35;11.70;99.90
21849;DHT22;11089;49.852;19.700;2023-05-16T01:17:26;11.50;1.00
21849;DHT22;11089;49.852;19.700;2023-05-16T01:20:40;11.50;1.00
21849;DHT22;11089;49.852;19.700;2023-05-16T01:24:02;11.60;1.00
21849;DHT22;11089;49.852;19.700;2023-05-16T01:27:06;11.50;99.90
21849;DHT22;11089;49.852;19.700;2023-05-16T01:30:18;11.50;1.00
21849;DHT22;11089;49.852;19.700;2023-05-16T01:33:19;11.30;99.90
21849;DHT22;11089;49.852;19.700;2023-05-16T01:36:24;11.20;1.00
21849;DHT22;11089;49.852;19.700;2023-05-16T01:40:02;11.20;1.00
21849;DHT22;11089;49.852;19.700;2023-05-16T01:43:04;11.20;99.90
21849;DHT22;11089;49.852;19.700;2023-05-16T01:46:11;11.10;1.00
21849;DHT22;11089;49.852;19.700;2023-05-16T01:49:29;11.10;99.90
21849;DHT22;11089;49.852;19.700;2023-05-16T01:52:41;10.90;1.00
21849;DHT22;11089;49.852;19.700;2023-05-16T01:55:46;11.00;99.90
21849;DHT22;11089;49.852;19.700;2023-05-16T01:58:49;11.20;1.00
21849;DHT22;11089;49.852;19.700;2023-05-16T02:01:56;11.30;1.00
21849;DHT22;11089;49.852;19.700;2023-05-16T02:04:57;11.30;1.00
21849;DHT22;11089;49.852;19.700;2023-05-16T02:08:01;11.30;1.00
21849;DHT22;11089;49.852;19.700;2023-05-16T02:11:02;11.30;1.00
21849;DHT22;11089;49.852;19.700;2023-05-16T02:14:03;11.40;1.00
21849;DHT22;11089;49.852;19.700;2023-05-16T02:17:04;11.30;99.90
21849;DHT22;11089;49.852;19.700;2023-05-16T02:20:06;11.30;1.00
21849;DHT22;11089;49.852;19.700;2023-05-16T02:23:09;11.20;99.90
21849;DHT22;11089;49.852;19.700;2023-05-16T02:26:10;11.20;1.00
21849;DHT22;11089;49.852;19.700;2023-05-16T02:29:11;11.20;66.20
21849;DHT22;11089;49.852;19.700;2023-05-16T02:32:12;11.20;1.00
21849;DHT22;11089;49.852;19.700;2023-05-16T02:35:13;11.20;1.00
21849;DHT22;11089;49.852;19.700;2023-05-16T02:38:14;11.10;1.00
21849;DHT22;11089;49.852;19.700;2023-05-16T02:41:17;11.20;1.00
21849;DHT22;11089;49.852;19.700;2023-05-16T02:44:18;11.20;99.90
21849;DHT22;11089;49.852;19.700;2023-05-16T02:47:19;11.20;40.20
21849;DHT22;11089;49.852;19.700;2023-05-16T02:50:20;11.10;26.40
21849;DHT22;11089;49.852;19.700;2023-05-16T02:53:21;11.10;99.90
21849;DHT22;11089;49.852;19.700;2023-05-16T02:56:22;11.10;23.40
21849;DHT22;11089;49.852;19.700;2023-05-16T02:59:23;11.10;1.00
21849;DHT22;11089;49.852;19.700;2023-05-16T03:02:24;11.20;1.00
21849;DHT22;11089;49.852;19.700;2023-05-16T03:05:25;11.10;99.90
21849;DHT22;11089;49.852;19.700;2023-05-16T03:08:26;11.10;1.00
21849;DHT22;11089;49.852;19.700;2023-05-16T03:11:27;11.10;1.00
21849;DHT22;11089;49.852;19.700;2023-05-16T03:14:28;11.10;99.90
21849;DHT22;11089;49.852;19.700;2023-05-16T03:17:29;11.20;1.00
21849;DHT22;11089;49.852;19.700;2023-05-16T03:20:30;11.10;1.00
21849;DHT22;11089;49.852;19.700;2023-05-16T03:23:31;11.20;64.10
21849;DHT22;11089;49.852;19.700;2023-05-16T03:26:32;11.20;99.90
21849;DHT22;11089;49.852;19.700;2023-05-16T03:29:33;11.20;99.90
21849;DHT22;11089;49.852;19.700;2023-05-16T03:32:34;11.20;1.00
21849;DHT22;11089;49.852;19.700;2023-05-16T03:35:35;11.20;1.00
21849;DHT22;11089;49.852;19.700;2023-05-16T03:38:37;11.40;99.90
21849;DHT22;11089;49.852;19.700;2023-05-16T03:41:38;11.40;99.90
21849;DHT22;11089;49.852;19.700;2023-05-16T03:44:39;11.30;1.00
21849;DHT22;11089;49.852;19.700;2023-05-16T03:47:40;11.40;1.00
21849;DHT22;11089;49.852;19.700;2023-05-16T03:50:41;11.40;1.00
21849;DHT22;11089;49.852;19.700;2023-05-16T03:53:42;11.40;99.90
21849;DHT22;11089;49.852;19.700;2023-05-16T03:56:43;11.40;1.00
21849;DHT22;11089;49.852;19.700;2023-05-16T03:59:43;11.30;1.00
21849;DHT22;11089;49.852;19.700;2023-05-16T04:02:45;11.20;99.90
21849;DHT22;11089;49.852;19.700;2023-05-16T04:05:46;11.30;1.00
21849;DHT22;11089;49.852;19.700;2023-05-16T04:08:46;11.30;99.90
21849;DHT22;11089;49.852;19.700;2023-05-16T04:11:47;11.30;1.00
21849;DHT22;11089;49.852;19.700;2023-05-16T04:14:49;11.40;99.90
21849;DHT22;11089;49.852;19.700;2023-05-16T04:17:50;11.50;1.00
21849;DHT22;11089;49.852;19.700;2023-05-16T04:20:50;11.60;1.00
21849;DHT22;11089;49.852;19.700;2023-05-16T04:23:51;11.70;1.00
21849;DHT22;11089;49.852;19.700;2023-05-16T04:26:52;11.70;99.90
21849;DHT22;11089;49.852;19.700;2023-05-16T04:29:53;11.80;99.90
21849;DHT22;11089;49.852;19.700;2023-05-16T04:32:54;11.70;1.00
21849;DHT22;11089;49.852;19.700;2023-05-16T04:35:56;11.80;99.90
21849;DHT22;11089;49.852;19.700;2023-05-16T04:38:58;11.80;1.00
21849;DHT22;11089;49.852;19.700;2023-05-16T04:41:59;11.90;99.90
21849;DHT22;11089;49.852;19.700;2023-05-16T04:45:00;11.90;1.00
21849;DHT22;11089;49.852;19.700;2023-05-16T04:48:03;11.90;1.00
21849;DHT22;11089;49.852;19.700;2023-05-16T04:51:04;12.00;1.00
21849;DHT22;11089;49.852;19.700;2023-05-16T04:54:05;12.00;1.00
21849;DHT22;11089;49.852;19.700;2023-05-16T04:57:08;12.10;1.00
21849;DHT22;11089;49.852;19.700;2023-05-16T05:00:09;12.10;99.90
21849;DHT22;11089;49.852;19.700;2023-05-16T05:03:11;12.10;99.90
21849;DHT22;11089;49.852;19.700;2023-05-16T05:06:12;12.20;1.00
21849;DHT22;11089;49.852;19.700;2023-05-16T05:09:13;12.20;99.90
21849;DHT22;11089;49.852;19.700;2023-05-16T05:12:14;12.20;99.90
21849;DHT22;11089;49.852;19.700;2023-05-16T05:15:15;12.30;99.90
21849;DHT22;11089;49.852;19.700;2023-05-16T05:18:16;12.40;1.00
21849;DHT22;11089;49.852;19.700;2023-05-16T05:21:17;12.50;1.00
21849;DHT22;11089;49.852;19.700;2023-05-16T05:24:19;12.60;1.00
21849;DHT22;11089;49.852;19.700;2023-05-16T05:27:20;12.80;1.00
21849;DHT22;11089;49.852;19.700;2023-05-16T05:30:21;13.00;1.00
21849;DHT22;11089;49.852;19.700;2023-05-16T05:33:26;13.10;99.90
21849;DHT22;11089;49.852;19.700;2023-05-16T05:36:29;13.10;1.00
21849;DHT22;11089;49.852;19.700;2023-05-16T05:39:30;13.10;99.90
21849;DHT22;11089;49.852;19.700;2023-05-16T05:42:31;13.20;1.00
21849;DHT22;11089;49.852;19.700;2023-05-16T05:45:32;13.30;13.00
21849;DHT22;11089;49.852;19.700;2023-05-16T05:48:33;13.40;99.90
21849;DHT22;11089;49.852;19.700;2023-05-16T05:51:34;13.50;99.90
21849;DHT22;11089;49.852;19.700;2023-05-16T05:54:35;13.60;1.00
21849;DHT22;11089;49.852;19.700;2023-05-16T05:57:36;13.70;1.00
21849;DHT22;11089;49.852;19.700;2023-05-16T06:00:37;13.70;99.90
21849;DHT22;11089;49.852;19.700;2023-05-16T06:03:38;13.80;1.00
21849;DHT22;11089;49.852;19.700;2023-05-16T06:06:39;13.90;1.00
21849;DHT22;11089;49.852;19.700;2023-05-16T06:09:40;14.00;99.90
21849;DHT22;11089;49.852;19.700;2023-05-16T06:12:42;14.10;1.00
21849;DHT22;11089;49.852;19.700;2023-05-16T06:15:43;14.20;1.00
21849;DHT22;11089;49.852;19.700;2023-05-16T06:18:44;14.30;99.90
21849;DHT22;11089;49.852;19.700;2023-05-16T06:21:45;14.40;1.00
21849;DHT22;11089;49.852;19.700;2023-05-16T06:24:46;14.40;1.00
21849;DHT22;11089;49.852;19.700;2023-05-16T06:27:47;14.40;1.00
21849;DHT22;11089;49.852;19.700;2023-05-16T06:30:48;14.60;99.90
21849;DHT22;11089;49.852;19.700;2023-05-16T06:33:51;14.80;1.20
21849;DHT22;11089;49.852;19.700;2023-05-16T06:36:52;14.80;1.00
21849;DHT22;11089;49.852;19.700;2023-05-16T06:39:53;14.80;1.00
21849;DHT22;11089;49.852;19.700;2023-05-16T06:42:54;14.90;1.00
21849;DHT22;11089;49.852;19.700;2023-05-16T06:45:58;15.00;1.00
21849;DHT22;11089;49.852;19.700;2023-05-16T06:48:58;15.10;99.90
21849;DHT22;11089;49.852;19.700;2023-05-16T06:51:59;15.20;1.00
21849;DHT22;11089;49.852;19.700;2023-05-16T06:55:00;15.40;99.90
21849;DHT22;11089;49.852;19.700;2023-05-16T06:58:01;15.40;1.00
21849;DHT22;11089;49.852;19.700;2023-05-16T07:01:02;15.50;1.00
21849;DHT22;11089;49.852;19.700;2023-05-16T07:04:03;15.60;1.00
21849;DHT22;11089;49.852;19.700;2023-05-16T07:07:04;15.70;1.00
21849;DHT22;11089;49.852;19.700;2023-05-16T07:10:07;15.80;1.00
21849;DHT22;11089;49.852;19.700;2023-05-16T07:13:09;15.90;1.00
21849;DHT22;11089;49.852;19.700;2023-05-16T07:16:10;16.00;1.00
21849;DHT22;11089;49.852;19.700;2023-05-16T07:19:11;16.20;1.00
21849;DHT22;11089;49.852;19.700;2023-05-16T07:22:12;16.30;99.90
21849;DHT22;11089;49.852;19.700;2023-05-16T07:25:13;16.40;99.90
21849;DHT22;11089;49.852;19.700;2023-05-16T07:28:15;16.40;99.90
21849;DHT22;11089;49.852;19.700;2023-05-16T07:31:16;16.50;99.90
21849;DHT22;11089;49.852;19.700;2023-05-16T07:34:18;16.50;99.90
21849;DHT22;11089;49.852;19.700;2023-05-16T07:37:18;16.50;99.90
21849;DHT22;11089;49.852;19.700;2023-05-16T07:40:20;16.70;99.90
21849;DHT22;11089;49.852;19.700;2023-05-16T07:43:25;16.90;71.80
21849;DHT22;11089;49.852;19.700;2023-05-16T07:46:26;17.10;76.00
21849;DHT22;11089;49.852;19.700;2023-05-16T07:49:27;17.30;99.90
21849;DHT22;11089;49.852;19.700;2023-05-16T07:52:28;17.50;99.90
21849;DHT22;11089;49.852;19.700;2023-05-16T07:55:29;17.70;99.90
21849;DHT22;11089;49.852;19.700;2023-05-16T07:58:30;17.90;16.60
21849;DHT22;11089;49.852;19.700;2023-05-16T08:01:31;17.90;1.00
21849;DHT22;11089;49.852;19.700;2023-05-16T08:04:32;18.00;1.00
21849;DHT22;11089;49.852;19.700;2023-05-16T08:07:33;18.10;1.00
21849;DHT22;11089;49.852;19.700;2023-05-16T08:10:34;18.10;1.00
21849;DHT22;11089;49.852;19.700;2023-05-16T08:13:35;17.90;1.00
21849;DHT22;11089;49.852;19.700;2023-05-16T08:16:36;18.10;1.00
21849;DHT22;11089;49.852;19.700;2023-05-16T08:19:37;18.20;1.00
21849;DHT22;11089;49.852;19.700;2023-05-16T08:22:38;18.30;1.00
21849;DHT22;11089;49.852;19.700;2023-05-16T08:25:39;18.50;1.00
21849;DHT22;11089;49.852;19.700;2023-05-16T08:28:40;18.70;1.00
21849;DHT22;11089;49.852;19.700;2023-05-16T08:31:41;18.90;1.00
21849;DHT22;11089;49.852;19.700;2023-05-16T08:34:42;18.70;1.00
21849;DHT22;11089;49.852;19.700;2023-05-16T08:37:43;19.00;1.00
21849;DHT22;11089;49.852;19.700;2023-05-16T08:40:44;19.30;1.00
21849;DHT22;11089;49.852;19.700;2023-05-16T08:43:45;19.40;1.00
21849;DHT22;11089;49.852;19.700;2023-05-16T08:46:51;19.40;1.00
21849;DHT22;11089;49.852;19.700;2023-05-16T08:49:57;19.60;1.00
21849;DHT22;11089;49.852;19.700;2023-05-16T08:53:04;19.80;1.00
21849;DHT22;11089;49.852;19.700;2023-05-16T08:56:07;20.00;1.00
21849;DHT22;11089;49.852;19.700;2023-05-16T08:59:09;20.30;1.00
21849;DHT22;11089;49.852;19.700;2023-05-16T09:02:11;20.60;1.00
21849;DHT22;11089;49.852;19.700;2023-05-16T09:05:14;20.90;1.00
21849;DHT22;11089;49.852;19.700;2023-05-16T09:08:15;20.90;1.00
21849;DHT22;11089;49.852;19.700;2023-05-16T09:11:16;21.00;1.00
21849;DHT22;11089;49.852;19.700;2023-05-16T09:14:18;21.20;1.00
21849;DHT22;11089;49.852;19.700;2023-05-16T09:17:19;21.40;1.00
21849;DHT22;11089;49.852;19.700;2023-05-16T09:20:20;21.40;1.00
21849;DHT22;11089;49.852;19.700;2023-05-16T09:23:24;21.50;1.00
21849;DHT22;11089;49.852;19.700;2023-05-16T09:26:25;21.60;1.00
21849;DHT22;11089;49.852;19.700;2023-05-16T09:29:26;21.80;1.00
21849;DHT22;11089;49.852;19.700;2023-05-16T09:32:27;21.90;1.00
21849;DHT22;11089;49.852;19.700;2023-05-16T09:35:28;22.10;1.00
21849;DHT22;11089;49.852;19.700;2023-05-16T09:38:29;22.20;1.00
21849;DHT22;11089;49.852;19.700;2023-05-16T09:41:34;22.30;1.00
21849;DHT22;11089;49.852;19.700;2023-05-16T09:44:36;22.20;1.00
21849;DHT22;11089;49.852;19.700;2023-05-16T09:47:37;22.30;1.00
21849;DHT22;11089;49.852;19.700;2023-05-16T09:50:50;22.40;1.00
21849;DHT22;11089;49.852;19.700;2023-05-16T09:53:52;22.00;1.00
21849;DHT22;11089;49.852;19.700;2023-05-16T09:56:54;21.40;1.00
21849;DHT22;11089;49.852;19.700;2023-05-16T09:59:58;21.80;1.00
21849;DHT22;11089;49.852;19.700;2023-05-16T10:03:01;22.00;1.00
21849;DHT22;11089;49.852;19.700;2023-05-16T10:06:04;22.20;1.00
21849;DHT22;11089;49.852;19.700;2023-05-16T10:09:11;22.50;1.00
21849;DHT22;11089;49.852;19.700;2023-05-16T10:12:14;22.50;1.00
21849;DHT22;11089;49.852;19.700;2023-05-16T10:15:16;22.60;1.00
21849;DHT22;11089;49.852;19.700;2023-05-16T10:18:20;22.40;1.00
21849;DHT22;11089;49.852;19.700;2023-05-16T10:21:22;22.30;1.00
21849;DHT22;11089;49.852;19.700;2023-05-16T10:24:34;22.40;1.00
21849;DHT22;11089;49.852;19.700;2023-05-16T10:27:36;22.50;1.00
21849;DHT22;11089;49.852;19.700;2023-05-16T10:30:40;22.50;1.00
21849;DHT22;11089;49.852;19.700;2023-05-16T10:33:43;22.60;1.00
21849;DHT22;11089;49.852;19.700;2023-05-16T10:36:45;22.70;1.00
21849;DHT22;11089;49.852;19.700;2023-05-16T10:39:47;22.60;1.00
21849;DHT22;11089;49.852;19.700;2023-05-16T10:43:21;22.40;1.00
21849;DHT22;11089;49.852;19.700;2023-05-16T10:46:24;22.30;1.00
21849;DHT22;11089;49.852;19.700;2023-05-16T10:49:26;22.30;1.00
21849;DHT22;11089;49.852;19.700;2023-05-16T10:52:33;22.20;1.00
21849;DHT22;11089;49.852;19.700;2023-05-16T10:55:35;22.10;1.00
21849;DHT22;11089;49.852;19.700;2023-05-16T11:01:40;21.70;1.00
21849;DHT22;11089;49.852;19.700;2023-05-16T11:05:12;21.50;1.00
21849;DHT22;11089;49.852;19.700;2023-05-16T11:08:13;21.60;1.00
21849;DHT22;11089;49.852;19.700;2023-05-16T11:14:43;21.60;1.00
21849;DHT22;11089;49.852;19.700;2023-05-16T11:17:50;21.50;1.00
21849;DHT22;11089;49.852;19.700;2023-05-16T11:20:51;21.50;1.00
21849;DHT22;11089;49.852;19.700;2023-05-16T11:24:28;21.40;1.00
21849;DHT22;11089;49.852;19.700;2023-05-16T11:33:57;20.90;1.00
21849;DHT22;11089;49.852;19.700;2023-05-16T11:36:58;20.90;1.00
21849;DHT22;11089;49.852;19.700;2023-05-16T11:40:00;21.00;1.00
21849;DHT22;11089;49.852;19.700;2023-05-16T11:43:01;21.00;1.00
21849;DHT22;11089;49.852;19.700;2023-05-16T11:46:03;20.90;1.00
21849;DHT22;11089;49.852;19.700;2023-05-16T11:49:04;20.80;1.00
21849;DHT22;11089;49.852;19.700;2023-05-16T11:52:07;20.40;1.00
21849;DHT22;11089;49.852;19.700;2023-05-16T11:55:10;20.30;1.00
21849;DHT22;11089;49.852;19.700;2023-05-16T11:58:11;20.40;1.00
21849;DHT22;11089;49.852;19.700;2023-05-16T12:01:12;20.40;1.00
21849;DHT22;11089;49.852;19.700;2023-05-16T12:04:14;20.50;1.00
21849;DHT22;11089;49.852;19.700;2023-05-16T12:07:16;20.50;1.00
21849;DHT22;11089;49.852;19.700;2023-05-16T12:10:20;20.50;1.00
21849;DHT22;11089;49.852;19.700;2023-05-16T12:13:22;20.30;1.00
21849;DHT22;11089;49.852;19.700;2023-05-16T12:16:24;20.20;1.00
21849;DHT22;11089;49.852;19.700;2023-05-16T12:19:25;20.30;1.00
21849;DHT22;11089;49.852;19.700;2023-05-16T12:22:26;20.20;1.00
21849;DHT22;11089;49.852;19.700;2023-05-16T12:25:28;20.10;1.00
21849;DHT22;11089;49.852;19.700;2023-05-16T12:28:35;20.10;1.00
21849;DHT22;11089;49.852;19.700;2023-05-16T12:31:39;20.10;1.00
21849;DHT22;11089;49.852;19.700;2023-05-16T12:34:51;20.10;1.00
21849;DHT22;11089;49.852;19.700;2023-05-16T12:37:52;20.10;1.00
21849;DHT22;11089;49.852;19.700;2023-05-16T12:40:57;20.00;1.00
21849;DHT22;11089;49.852;19.700;2023-05-16T12:44:16;19.80;1.00
21849;DHT22;11089;49.852;19.700;2023-05-16T12:47:17;19.80;1.00
21849;DHT22;11089;49.852;19.700;2023-05-16T12:50:18;19.80;1.00
21849;DHT22;11089;49.852;19.700;2023-05-16T12:53:19;19.60;1.00
21849;DHT22;11089;49.852;19.700;2023-05-16T12:56:20;19.60;1.00
21849;DHT22;11089;49.852;19.700;2023-05-16T12:59:22;19.50;1.00
21849;DHT22;11089;49.852;19.700;2023-05-16T13:02:23;19.40;1.00
21849;DHT22;11089;49.852;19.700;2023-05-16T13:05:23;19.40;1.00
21849;DHT22;11089;49.852;19.700;2023-05-16T13:08:26;19.40;1.00
21849;DHT22;11089;49.852;19.700;2023-05-16T13:11:27;19.40;1.00
21849;DHT22;11089;49.852;19.700;2023-05-16T13:14:28;19.40;1.00
21849;DHT22;11089;49.852;19.700;2023-05-16T13:17:29;19.40;1.00
21849;DHT22;11089;49.852;19.700;2023-05-16T13:20:30;19.20;1.00
21849;DHT22;11089;49.852;19.700;2023-05-16T13:23:31;19.30;29.20
21849;DHT22;11089;49.852;19.700;2023-05-16T13:26:35;19.20;99.90
21849;DHT22;11089;49.852;19.700;2023-05-16T13:29:36;19.20;99.90
21849;DHT22;11089;49.852;19.700;2023-05-16T13:32:37;19.30;99.90
21849;DHT22;11089;49.852;19.700;2023-05-16T13:35:38;19.10;99.90
21849;DHT22;11089;49.852;19.700;2023-05-16T13:38:39;19.20;1.00
21849;DHT22;11089;49.852;19.700;2023-05-16T13:41:41;19.20;1.00
21849;DHT22;11089;49.852;19.700;2023-05-16T13:44:42;19.20;1.00
21849;DHT22;11089;49.852;19.700;2023-05-16T13:47:44;19.10;1.00
21849;DHT22;11089;49.852;19.700;2023-05-16T13:50:45;19.00;1.00
21849;DHT22;11089;49.852;19.700;2023-05-16T13:53:46;18.90;99.90
21849;DHT22;11089;49.852;19.700;2023-05-16T13:56:47;18.70;1.00
21849;DHT22;11089;49.852;19.700;2023-05-16T13:59:48;18.50;99.90
21849;DHT22;11089;49.852;19.700;2023-05-16T14:02:49;18.30;99.90
21849;DHT22;11089;49.852;19.700;2023-05-16T14:05:50;18.20;99.90
21849;DHT22;11089;49.852;19.700;2023-05-16T14:08:51;18.30;99.90
21849;DHT22;11089;49.852;19.700;2023-05-16T14:11:52;18.30;99.90
21849;DHT22;11089;49.852;19.700;2023-05-16T14:14:53;18.10;99.90
21849;DHT22;11089;49.852;19.700;2023-05-16T14:17:54;18.10;1.00
21849;DHT22;11089;49.852;19.700;2023-05-16T14:20:55;18.20;99.90
21849;DHT22;11089;49.852;19.700;2023-05-16T14:23:56;17.80;99.90
21849;DHT22;11089;49.852;19.700;2023-05-16T14:26:57;17.50;99.90
21849;DHT22;11089;49.852;19.700;2023-05-16T14:29:58;17.60;99.90
21849;DHT22;11089;49.852;19.700;2023-05-16T14:33:00;17.50;99.90
21849;DHT22;11089;49.852;19.700;2023-05-16T14:36:03;17.40;99.90
21849;DHT22;11089;49.852;19.700;2023-05-16T14:39:04;17.40;99.90
21849;DHT22;11089;49.852;19.700;2023-05-16T14:42:05;17.60;99.90
21849;DHT22;11089;49.852;19.700;2023-05-16T14:45:06;17.60;99.90
21849;DHT22;11089;49.852;19.700;2023-05-16T14:48:07;17.40;1.00
21849;DHT22;11089;49.852;19.700;2023-05-16T14:51:08;17.40;1.00
21849;DHT22;11089;49.852;19.700;2023-05-16T14:54:09;17.50;1.00
21849;DHT22;11089;49.852;19.700;2023-05-16T14:57:10;17.40;99.90
21849;DHT22;11089;49.852;19.700;2023-05-16T15:00:11;17.50;1.00
21849;DHT22;11089;49.852;19.700;2023-05-16T15:03:14;17.40;1.00
21849;DHT22;11089;49.852;19.700;2023-05-16T15:06:15;17.50;1.00
21849;DHT22;11089;49.852;19.700;2023-05-16T15:09:16;17.40;1.00
21849;DHT22;11089;49.852;19.700;2023-05-16T15:12:18;17.40;99.90
21849;DHT22;11089;49.852;19.700;2023-05-16T15:15:19;17.30;99.90
21849;DHT22;11089;49.852;19.700;2023-05-16T15:18:20;17.20;1.00
21849;DHT22;11089;49.852;19.700;2023-05-16T15:21:21;17.00;99.90
21849;DHT22;11089;49.852;19.700;2023-05-16T15:24:23;16.80;1.00
21849;DHT22;11089;49.852;19.700;2023-05-16T15:27:24;16.70;1.00
21849;DHT22;11089;49.852;19.700;2023-05-16T15:30:25;16.60;99.90
21849;DHT22;11089;49.852;19.700;2023-05-16T15:33:26;16.60;1.00
21849;DHT22;11089;49.852;19.700;2023-05-16T15:36:27;16.50;82.10
21849;DHT22;11089;49.852;19.700;2023-05-16T15:39:28;16.50;99.90
21849;DHT22;11089;49.852;19.700;2023-05-16T15:42:29;16.40;1.00
21849;DHT22;11089;49.852;19.700;2023-05-16T15:45:30;16.40;1.00
21849;DHT22;11089;49.852;19.700;2023-05-16T15:48:32;16.30;99.90
21849;DHT22;11089;49.852;19.700;2023-05-16T15:51:33;16.30;99.90
21849;DHT22;11089;49.852;19.700;2023-05-16T15:54:34;16.30;99.90
21849;DHT22;11089;49.852;19.700;2023-05-16T15:57:36;16.20;1.00
21849;DHT22;11089;49.852;19.700;2023-05-16T16:00:37;16.10;1.00
21849;DHT22;11089;49.852;19.700;2023-05-16T16:03:40;16.10;1.00
21849;DHT22;11089;49.852;19.700;2023-05-16T16:06:41;16.20;1.00
21849;DHT22;11089;49.852;19.700;2023-05-16T16:09:42;16.10;99.90
21849;DHT22;11089;49.852;19.700;2023-05-16T16:12:43;15.80;1.00
21849;DHT22;11089;49.852;19.700;2023-05-16T16:15:57;15.70;1.00
21849;DHT22;11089;49.852;19.700;2023-05-16T16:18:58;15.60;1.00
21849;DHT22;11089;49.852;19.700;2023-05-16T16:21:59;15.70;99.90
21849;DHT22;11089;49.852;19.700;2023-05-16T16:25:00;15.70;99.90
21849;DHT22;11089;49.852;19.700;2023-05-16T16:28:01;15.50;1.00
21849;DHT22;11089;49.852;19.700;2023-05-16T16:31:02;15.60;81.10
21849;DHT22;11089;49.852;19.700;2023-05-16T16:34:03;15.50;99.90
21849;DHT22;11089;49.852;19.700;2023-05-16T16:37:04;15.50;28.10
21849;DHT22;11089;49.852;19.700;2023-05-16T16:40:08;15.60;99.90
21849;DHT22;11089;49.852;19.700;2023-05-16T16:43:09;15.50;1.00
21849;DHT22;11089;49.852;19.700;2023-05-16T16:46:10;15.50;30.40
21849;DHT22;11089;49.852;19.700;2023-05-16T16:49:11;15.50;99.90
21849;DHT22;11089;49.852;19.700;2023-05-16T16:52:12;15.40;99.90
21849;DHT22;11089;49.852;19.700;2023-05-16T16:55:13;15.60;99.90
21849;DHT22;11089;49.852;19.700;2023-05-16T16:58:14;15.50;99.90
21849;DHT22;11089;49.852;19.700;2023-05-16T17:01:15;15.40;99.90
21849;DHT22;11089;49.852;19.700;2023-05-16T17:04:17;15.40;99.90
21849;DHT22;11089;49.852;19.700;2023-05-16T17:07:17;15.40;6.30
21849;DHT22;11089;49.852;19.700;2023-05-16T17:10:18;15.40;1.00
21849;DHT22;11089;49.852;19.700;2023-05-16T17:13:20;15.40;1.00
21849;DHT22;11089;49.852;19.700;2023-05-16T17:16:21;15.20;1.00
21849;DHT22;11089;49.852;19.700;2023-05-16T17:19:22;15.20;99.90
21849;DHT22;11089;49.852;19.700;2023-05-16T17:22:23;15.20;99.90
21849;DHT22;11089;49.852;19.700;2023-05-16T17:25:24;15.20;1.00
21849;DHT22;11089;49.852;19.700;2023-05-16T17:28:25;15.10;1.00
21849;DHT22;11089;49.852;19.700;2023-05-16T17:31:27;15.10;99.90
21849;DHT22;11089;49.852;19.700;2023-05-16T17:34:28;15.00;99.90
21849;DHT22;11089;49.852;19.700;2023-05-16T17:37:29;15.00;1.00
21849;DHT22;11089;49.852;19.700;2023-05-16T17:40:30;14.80;1.00
21849;DHT22;11089;49.852;19.700;2023-05-16T17:43:31;14.80;99.90
21849;DHT22;11089;49.852;19.700;2023-05-16T17:46:32;14.80;99.90
21849;DHT22;11089;49.852;19.700;2023-05-16T17:49:33;14.70;99.90
21849;DHT22;11089;49.852;19.700;2023-05-16T17:52:35;14.60;1.00
21849;DHT22;11089;49.852;19.700;2023-05-16T17:55:37;14.70;1.00
21849;DHT22;11089;49.852;19.700;2023-05-16T17:58:38;14.70;1.00
21849;DHT22;11089;49.852;19.700;2023-05-16T18:01:39;14.50;99.90
21849;DHT22;11089;49.852;19.700;2023-05-16T18:04:41;14.50;1.00
21849;DHT22;11089;49.852;19.700;2023-05-16T18:07:42;14.40;99.90
21849;DHT22;11089;49.852;19.700;2023-05-16T18:10:43;14.40;1.00
21849;DHT22;11089;49.852;19.700;2023-05-16T18:13:45;14.40;1.00
21849;DHT22;11089;49.852;19.700;2023-05-16T18:16:46;14.40;99.90
21849;DHT22;11089;49.852;19.700;2023-05-16T18:19:47;14.30;99.90
21849;DHT22;11089;49.852;19.700;2023-05-16T18:22:48;14.30;99.90
21849;DHT22;11089;49.852;19.700;2023-05-16T18:25:51;14.30;1.00
21849;DHT22;11089;49.852;19.700;2023-05-16T18:28:53;14.20;1.00
21849;DHT22;11089;49.852;19.700;2023-05-16T18:31:55;14.20;1.00
21849;DHT22;11089;49.852;19.700;2023-05-16T18:34:56;14.20;43.70
21849;DHT22;11089;49.852;19.700;2023-05-16T18:37:57;14.20;1.00
21849;DHT22;11089;49.852;19.700;2023-05-16T18:40:58;14.20;1.00
21849;DHT22;11089;49.852;19.700;2023-05-16T18:43:59;14.10;99.90
21849;DHT22;11089;49.852;19.700;2023-05-16T18:47:00;14.00;1.00
21849;DHT22;11089;49.852;19.700;2023-05-16T18:50:01;14.00;1.00
21849;DHT22;11089;49.852;19.700;2023-05-16T18:53:02;14.10;99.90
21849;DHT22;11089;49.852;19.700;2023-05-16T18:56:03;14.00;1.00
21849;DHT22;11089;49.852;19.700;2023-05-16T18:59:04;13.90;1.00
21849;DHT22;11089;49.852;19.700;2023-05-16T19:02:06;13.80;1.00
21849;DHT22;11089;49.852;19.700;2023-05-16T19:05:07;13.90;99.90
21849;DHT22;11089;49.852;19.700;2023-05-16T19:08:09;13.90;99.90
21849;DHT22;11089;49.852;19.700;2023-05-16T19:11:10;14.00;61.70
21849;DHT22;11089;49.852;19.700;2023-05-16T19:14:11;14.00;99.90
21849;DHT22;11089;49.852;19.700;2023-05-16T19:17:12;13.80;99.90
21849;DHT22;11089;49.852;19.700;2023-05-16T19:20:13;13.80;1.00
21849;DHT22;11089;49.852;19.700;2023-05-16T19:23:14;13.80;1.00